Time,TemperatureF,DewpointF,PressureIn,WindDirection,WindDirectionDegrees,WindSpeedMPH,WindSpeedGustMPH,Humidity,HourlyPrecipIn,Conditions,Clouds,dailyrainin,SoftwareType,DateUTC
2013-01-20 00:09:00,33.5,27.0,29.75,SE,138,0.0,-999.0,76,-99.99,,,0.00,weatherlink.com 1.10,2013-01-20 05:09:00,
2013-01-20 00:24:00,33.9,27.0,29.75,SE,138,0.0,-999.0,77,-99.99,,,0.00,weatherlink.com 1.10,2013-01-20 05:24:00,
2013-01-20 00:39:00,33.8,26.0,29.74,WSW,240,0.0,-999.0,73,-99.99,,,0.00,weatherlink.com 1.10,2013-01-20 05:39:00,
2013-01-20 00:54:00,34.3,26.0,29.73,WSW,240,0.0,-999.0,73,-99.99,,,0.00,weatherlink.com 1.10,2013-01-20 05:54:00,
2013-01-20 01:09:00,34.2,26.0,29.73,SSE,163,0.0,-999.0,73,-99.99,,,0.00,weatherlink.com 1.10,2013-01-20 06:09:00,
2013-01-20 01:24:00,33.9,27.0,29.72,SSW,212,0.0,-999.0,75,-99.99,,,0.00,weatherlink.com 1.10,2013-01-20 06:24:00,
2013-01-20 01:39:00,33.8,26.0,29.72,SSE,159,0.0,-999.0,73,-99.99,,,0.00,weatherlink.com 1.10,2013-01-20 06:39:00,
2013-01-20 01:54:00,33.7,26.0,29.71,ESE,103,0.0,-999.0,73,-99.99,,,0.00,weatherlink.com 1.10,2013-01-20 06:54:00,
2013-01-20 02:09:00,34.1,26.0,29.70,ESE,103,0.0,-999.0,71,-99.99,,,0.00,weatherlink.com 1.10,2013-01-20 07:09:00,
2013-01-20 02:24:00,33.8,28.0,29.69,ESE,103,0.0,-999.0,78,-99.99,,,0.00,weatherlink.com 1.10,2013-01-20 07:24:00,
2013-01-20 02:39:00,33.9,26.0,29.68,ESE,103,0.0,-999.0,74,-99.99,,,0.00,weatherlink.com 1.10,2013-01-20 07:39:00,
2013-01-20 02:54:00,34.1,28.0,29.68,ESE,103,0.0,-999.0,77,-99.99,,,0.00,weatherlink.com 1.10,2013-01-20 07:54:00,
2013-01-20 03:09:00,33.6,26.0,29.67,ESE,103,0.0,-999.0,75,-99.99,,,0.00,weatherlink.com 1.10,2013-01-20 08:09:00,
2013-01-20 03:24:00,33.4,27.0,29.66,ESE,103,0.0,-999.0,76,-99.99,,,0.00,weatherlink.com 1.10,2013-01-20 08:24:00,
2013-01-20 03:39:00,33.9,27.0,29.64,ESE,103,0.0,-999.0,75,-99.99,,,0.00,weatherlink.com 1.10,2013-01-20 08:39:00,
2013-01-20 03:54:00,33.9,26.0,29.63,ESE,103,0.0,-999.0,74,-99.99,,,0.00,weatherlink.com 1.10,2013-01-20 08:54:00,
2013-01-20 04:09:00,33.2,26.0,29.61,ESE,103,0.0,-999.0,75,-99.99,,,0.00,weatherlink.com 1.10,2013-01-20 09:09:00,
2013-01-20 04:24:00,32.7,26.0,29.59,ESE,103,0.0,-999.0,76,-99.99,,,0.00,weatherlink.com 1.10,2013-01-20 09:24:00,
2013-01-20 04:39:00,32.1,26.0,29.58,ESE,103,0.0,-999.0,79,-99.99,,,0.00,weatherlink.com 1.10,2013-01-20 09:39:00,
2013-01-20 04:54:00,32.3,26.0,29.56,ESE,103,0.0,-999.0,78,-99.99,,,0.00,weatherlink.com 1.10,2013-01-20 09:54:00,
2013-01-20 05:10:00,32.6,27.0,29.54,ESE,103,0.0,-999.0,79,-99.99,,,0.00,weatherlink.com 1.10,2013-01-20 10:10:00,
2013-01-20 05:25:00,31.3,26.0,29.53,ESE,103,0.0,-999.0,81,-99.99,,,0.00,weatherlink.com 1.10,2013-01-20 10:25:00,
2013-01-20 05:40:00,30.8,26.0,29.52,ESE,103,0.0,-999.0,82,-99.99,,,0.00,weatherlink.com 1.10,2013-01-20 10:40:00,
2013-01-20 05:55:00,31.3,26.0,29.51,ESE,103,0.0,-999.0,80,-99.99,,,0.00,weatherlink.com 1.10,2013-01-20 10:55:00,
2013-01-20 06:10:00,30.8,26.0,29.50,ESE,103,0.0,-999.0,81,-99.99,,,0.00,weatherlink.com 1.10,2013-01-20 11:10:00,
2013-01-20 06:25:00,30.6,25.0,29.49,ESE,103,0.0,-999.0,81,-99.99,,,0.00,weatherlink.com 1.10,2013-01-20 11:25:00,
2013-01-20 06:40:00,30.7,26.0,29.48,ESE,103,0.0,-999.0,81,-99.99,,,0.00,weatherlink.com 1.10,2013-01-20 11:40:00,
2013-01-20 06:55:00,30.6,25.0,29.46,ESE,103,0.0,-999.0,81,-99.99,,,0.00,weatherlink.com 1.10,2013-01-20 11:55:00,
2013-01-20 07:10:00,30.8,26.0,29.47,ESE,103,0.0,-999.0,81,-99.99,,,0.00,weatherlink.com 1.10,2013-01-20 12:10:00,
2013-01-20 07:25:00,31.9,26.0,29.46,ESE,103,0.0,-999.0,78,-99.99,,,0.00,weatherlink.com 1.10,2013-01-20 12:25:00,
2013-01-20 07:40:00,32.2,26.0,29.46,South,176,0.0,-999.0,78,-99.99,,,0.00,weatherlink.com 1.10,2013-01-20 12:40:00,
2013-01-20 07:55:00,32.1,26.0,29.45,ESE,105,0.0,-999.0,78,-99.99,,,0.00,weatherlink.com 1.10,2013-01-20 12:55:00,
2013-01-20 08:10:00,31.8,26.0,29.44,South,190,0.0,-999.0,79,-99.99,,,0.00,weatherlink.com 1.10,2013-01-20 13:10:00,
2013-01-20 08:25:00,31.8,26.0,29.44,East,98,0.0,-999.0,80,-99.99,,,0.00,weatherlink.com 1.10,2013-01-20 13:25:00,
2013-01-20 08:40:00,32.3,26.0,29.43,NE,56,0.0,-999.0,79,-99.99,,,0.00,weatherlink.com 1.10,2013-01-20 13:40:00,
2013-01-20 08:55:00,32.8,27.0,29.42,East,84,0.0,-999.0,79,-99.99,,,0.00,weatherlink.com 1.10,2013-01-20 13:55:00,
2013-01-20 09:10:00,34.7,28.0,29.42,WSW,238,0.0,-999.0,77,-99.99,,,0.00,weatherlink.com 1.10,2013-01-20 14:10:00,
2013-01-20 09:25:00,36.3,29.0,29.42,SE,139,6.0,-999.0,75,-99.99,,,0.00,weatherlink.com 1.10,2013-01-20 14:25:00,
2013-01-20 09:40:00,37.0,29.0,29.43,WSW,243,1.0,-999.0,74,-99.99,,,0.00,weatherlink.com 1.10,2013-01-20 14:40:00,
2013-01-20 09:55:00,37.1,29.0,29.43,South,177,1.0,-999.0,73,-99.99,,,0.00,weatherlink.com 1.10,2013-01-20 14:55:00,
2013-01-20 10:10:00,37.1,30.0,29.43,SSE,156,2.0,-999.0,74,-99.99,,,0.00,weatherlink.com 1.10,2013-01-20 15:10:00,
2013-01-20 10:25:00,36.7,30.0,29.47,South,189,5.0,-999.0,76,-99.99,,,0.00,weatherlink.com 1.10,2013-01-20 15:25:00,
2013-01-20 10:40:00,34.8,32.0,29.48,WSW,237,2.0,-999.0,88,-99.99,,,0.00,weatherlink.com 1.10,2013-01-20 15:40:00,
2013-01-20 10:55:00,34.6,31.0,29.47,South,178,0.0,-999.0,87,-99.99,,,0.00,weatherlink.com 1.10,2013-01-20 15:55:00,
2013-01-20 11:10:00,34.8,31.0,29.46,South,191,0.0,-999.0,86,-99.99,,,0.00,weatherlink.com 1.10,2013-01-20 16:10:00,
2013-01-20 11:25:00,36.0,31.0,29.44,South,187,0.0,-999.0,83,-99.99,,,0.00,weatherlink.com 1.10,2013-01-20 16:25:00,
2013-01-20 11:40:00,36.1,31.0,29.44,SSW,196,3.0,-999.0,83,-99.99,,,0.00,weatherlink.com 1.10,2013-01-20 16:40:00,
2013-01-20 11:55:00,36.7,31.0,29.44,NW,305,3.0,-999.0,80,-99.99,,,0.00,weatherlink.com 1.10,2013-01-20 16:55:00,
2013-01-20 12:10:00,37.4,30.0,29.43,SW,227,3.0,-999.0,75,-99.99,,,0.01,weatherlink.com 1.10,2013-01-20 17:10:00,
2013-01-20 12:25:00,37.3,30.0,29.46,NW,309,4.0,-999.0,75,-99.99,,,0.02,weatherlink.com 1.10,2013-01-20 17:25:00,
2013-01-20 12:40:00,35.4,31.0,29.46,West,261,4.0,-999.0,83,-99.99,,,0.02,weatherlink.com 1.10,2013-01-20 17:40:00,
2013-01-20 12:55:00,36.1,30.0,29.46,West,279,3.0,-999.0,78,-99.99,,,0.03,weatherlink.com 1.10,2013-01-20 17:55:00,
2013-01-20 13:10:00,37.2,25.0,29.48,West,271,7.0,-999.0,62,-99.99,,,0.03,weatherlink.com 1.10,2013-01-20 18:10:00,
2013-01-20 13:25:00,36.6,25.0,29.48,SW,226,2.0,-999.0,62,-99.99,,,0.04,weatherlink.com 1.10,2013-01-20 18:25:00,
2013-01-20 13:40:00,36.8,26.0,29.48,WNW,288,2.0,-999.0,64,-99.99,,,0.05,weatherlink.com 1.10,2013-01-20 18:40:00,
2013-01-20 13:56:00,37.2,21.0,29.50,South,184,3.0,-999.0,52,-99.99,,,0.05,weatherlink.com 1.10,2013-01-20 18:56:00,
2013-01-20 14:10:00,35.8,19.0,29.52,West,263,7.0,-999.0,51,-99.99,,,0.06,weatherlink.com 1.10,2013-01-20 19:10:00,
2013-01-20 14:25:00,35.6,20.0,29.52,West,279,3.0,-999.0,54,-99.99,,,0.07,weatherlink.com 1.10,2013-01-20 19:25:00,
2013-01-20 14:41:00,35.3,19.0,29.54,SW,233,13.0,-999.0,52,-99.99,,,0.07,weatherlink.com 1.10,2013-01-20 19:41:00,
2013-01-20 14:56:00,33.7,18.0,29.54,WSW,257,3.0,-999.0,54,-99.99,,,0.08,weatherlink.com 1.10,2013-01-20 19:56:00,
2013-01-20 15:11:00,33.0,20.0,29.55,West,261,6.0,-999.0,58,-99.99,,,0.08,weatherlink.com 1.10,2013-01-20 20:11:00,
2013-01-20 15:26:00,32.6,19.0,29.56,West,266,2.0,-999.0,58,-99.99,,,0.08,weatherlink.com 1.10,2013-01-20 20:26:00,
2013-01-20 15:41:00,31.7,18.0,29.58,West,277,4.0,-999.0,58,-99.99,,,0.08,weatherlink.com 1.10,2013-01-20 20:41:00,
2013-01-20 15:56:00,31.1,17.0,29.59,NNW,328,9.0,-999.0,56,-99.99,,,0.08,weatherlink.com 1.10,2013-01-20 20:56:00,
2013-01-20 16:11:00,30.8,16.0,29.60,NE,46,1.0,-999.0,55,-99.99,,,0.09,weatherlink.com 1.10,2013-01-20 21:11:00,
2013-01-20 16:26:00,30.5,15.0,29.61,SW,230,5.0,-999.0,53,-99.99,,,0.09,weatherlink.com 1.10,2013-01-20 21:26:00,
2013-01-20 16:41:00,30.0,14.0,29.63,SW,222,4.0,-999.0,52,-99.99,,,0.09,weatherlink.com 1.10,2013-01-20 21:41:00,
2013-01-20 16:56:00,28.8,19.0,29.65,West,275,4.0,-999.0,67,-99.99,,,0.09,weatherlink.com 1.10,2013-01-20 21:56:00,
2013-01-20 17:11:00,27.2,21.0,29.67,NW,311,7.0,-999.0,76,-99.99,,,0.09,weatherlink.com 1.10,2013-01-20 22:11:00,
2013-01-20 17:26:00,26.1,20.0,29.67,SSW,207,2.0,-999.0,76,-99.99,,,0.09,weatherlink.com 1.10,2013-01-20 22:26:00,
2013-01-20 17:41:00,26.6,15.0,29.67,SSW,194,4.0,-999.0,63,-99.99,,,0.09,weatherlink.com 1.10,2013-01-20 22:41:00,
2013-01-20 17:56:00,26.7,13.0,29.68,NNW,344,1.0,-999.0,57,-99.99,,,0.09,weatherlink.com 1.10,2013-01-20 22:56:00,
2013-01-20 18:11:00,26.5,15.0,29.69,NNW,345,3.0,-999.0,61,-99.99,,,0.09,weatherlink.com 1.10,2013-01-20 23:11:00,
2013-01-20 18:26:00,26.0,13.0,29.69,NW,311,0.0,-999.0,59,-99.99,,,0.09,weatherlink.com 1.10,2013-01-20 23:26:00,
2013-01-20 18:41:00,25.6,10.0,29.70,SSE,152,5.0,-999.0,53,-99.99,,,0.09,weatherlink.com 1.10,2013-01-20 23:41:00,
2013-01-20 18:56:00,25.3,10.0,29.70,SW,215,4.0,-999.0,53,-99.99,,,0.09,weatherlink.com 1.10,2013-01-20 23:56:00,
2013-01-20 19:11:00,24.9,10.0,29.71,NNE,13,2.0,-999.0,54,-99.99,,,0.09,weatherlink.com 1.10,2013-01-21 00:11:00,
2013-01-20 19:41:00,23.7,16.0,29.74,NW,305,3.0,-999.0,72,-99.99,,,0.09,weatherlink.com 1.10,2013-01-21 00:41:00,
2013-01-20 19:56:00,22.4,18.0,29.75,SSW,207,2.0,-999.0,83,-99.99,,,0.09,weatherlink.com 1.10,2013-01-21 00:56:00,
2013-01-20 20:11:00,21.9,16.0,29.75,West,279,4.0,-999.0,79,-99.99,,,0.09,weatherlink.com 1.10,2013-01-21 01:11:00,
2013-01-20 20:26:00,21.8,12.0,29.76,NNW,334,3.0,-999.0,67,-99.99,,,0.09,weatherlink.com 1.10,2013-01-21 01:26:00,
2013-01-20 20:41:00,21.4,12.0,29.76,West,273,2.0,-999.0,66,-99.99,,,0.09,weatherlink.com 1.10,2013-01-21 01:41:00,
2013-01-20 20:57:00,20.8,12.0,29.77,NW,315,2.0,-999.0,70,-99.99,,,0.09,weatherlink.com 1.10,2013-01-21 01:57:00,
2013-01-20 21:12:00,20.1,13.0,29.78,NNE,28,2.0,-999.0,75,-99.99,,,0.09,weatherlink.com 1.10,2013-01-21 02:12:00,
2013-01-20 21:27:00,19.1,13.0,29.79,NE,40,5.0,-999.0,78,-99.99,,,0.09,weatherlink.com 1.10,2013-01-21 02:27:00,
2013-01-20 21:42:00,18.2,12.0,29.80,SW,227,3.0,-999.0,78,-99.99,,,0.09,weatherlink.com 1.10,2013-01-21 02:42:00,
2013-01-20 21:57:00,17.3,12.0,29.80,NW,317,2.0,-999.0,81,-99.99,,,0.09,weatherlink.com 1.10,2013-01-21 02:57:00,
2013-01-20 22:12:00,16.7,11.0,29.81,North,350,2.0,-999.0,79,-99.99,,,0.09,weatherlink.com 1.10,2013-01-21 03:12:00,
2013-01-20 22:27:00,15.9,10.0,29.82,North,11,0.0,-999.0,78,-99.99,,,0.09,weatherlink.com 1.10,2013-01-21 03:27:00,
2013-01-20 22:42:00,15.4,9.0,29.82,North,355,0.0,-999.0,77,-99.99,,,0.09,weatherlink.com 1.10,2013-01-21 03:42:00,
2013-01-20 22:57:00,14.9,9.0,29.83,NNW,336,1.0,-999.0,78,-99.99,,,0.09,weatherlink.com 1.10,2013-01-21 03:57:00,
2013-01-20 23:12:00,14.3,8.0,29.84,NW,326,1.0,-999.0,77,-99.99,,,0.09,weatherlink.com 1.10,2013-01-21 04:12:00,
2013-01-20 23:27:00,13.6,7.0,29.85,NE,44,3.0,-999.0,76,-99.99,,,0.09,weatherlink.com 1.10,2013-01-21 04:27:00,
2013-01-20 23:42:00,12.9,7.0,29.85,West,276,2.0,-999.0,76,-99.99,,,0.09,weatherlink.com 1.10,2013-01-21 04:42:00,
2013-01-20 23:57:00,12.4,7.0,29.86,WNW,295,0.0,-999.0,77,-99.99,,,0.09,weatherlink.com 1.10,2013-01-21 04:57:00,